Arlington, Massachusetts
Current Conditions -  °F | °C
As of 1:56 PM on Saturday 25 Oct 2014 (Local Time) from KBED Reporting Station
Clear Clear  
Wind Chill: 64°   Ceiling: Unl
Heat Index: 64°   Visibility: 10mi
Dew Point: 40°   Wind: 8mph
Humidity: 41%   Direction: 260°W
Pressure: 29.63"   Gusts: NA
Location:  42.42°N, 71.16°W
Report Text: KBED 251756Z 26007KT 10SM CLR 18/04 A2963 RMK AO2 SLP045 T01780044 10178 20067 58029
Loading
Personal Weather Stations






























Interactive Weather Map
Tropical Storm Tracking
New forecast layout! Learn more

10-Day Weather Forecast

Advertisements
Track Severe Weather on mobile